Bookmark and Share
Track history (hours):
 

Sanpo Maru No.5

Last reported at 2014-Apr-20 12:26 UTC. Time now 2014-Apr-20 13:29 UTC.
Position N 35°31' E 139°59'.

Length 71 m; draft 4.5 m.

Type: Ship. MMSI: 431500283.

NotesDate/timePositionNaut miles runAvg speedWind from/ knotsBaromVisibWave heightAir tempDewpointWater temp
2014-Apr-20 12:26N 35°31' E 139°59'0 0.0
2014-Apr-20 11:23N 35°31' E 139°59'0 0.1
2014-Apr-20 10:29N 35°31' E 139°59'0 0.0
2014-Apr-20 09:32N 35°31' E 139°59'3 3.3
2014-Apr-20 08:33N 35°30' E 139°56'1110.5
2014-Apr-20 07:33N 35°23' E 139°46'1010.3
2014-Apr-20 06:33N 35°13' E 139°47'1010.4
2014-Apr-20 05:33N 35°03' E 139°41'  
2014-Apr-16 04:30N 34°16' E 134°59'1212.4
2014-Apr-16 03:34N 34°25' E 135°07'1212.3
2014-Apr-16 02:33N 34°31' E 135°21'2 0.7
2014-Apr-15 23:29N 34°29' E 135°22'2 2.2
2014-Apr-15 22:28N 34°31' E 135°21'0 0.1
2014-Apr-15 21:33N 34°31' E 135°21'0 0.0
2014-Apr-15 19:05N 34°31' E 135°21'5 8.5
2014-Apr-15 18:31N 34°29' E 135°16'1010.2
2014-Apr-15 17:32N 34°23' E 135°06'9 9.2
2014-Apr-15 16:33N 34°16' E 134°59'1010.3
2014-Apr-15 15:33N 34°06' E 134°59'210 8.4
2014-Apr-14 14:33N 34°47' E 139°09'3110.5
2014-Apr-14 11:34N 35°05' E 139°40'1110.9
2014-Apr-14 10:34N 35°15' E 139°46'1010.4
2014-Apr-14 09:34N 35°25' E 139°44'1110.8
2014-Apr-14 08:33N 35°30' E 139°56'5 4.5
2014-Apr-14 07:31N 35°30' E 140°02'0 0.0
2014-Apr-14 06:31N 35°30' E 140°02'1 1.4
2014-Apr-14 05:33N 35°30' E 140°00'12 1.7
2014-Apr-13 22:33N 35°31' E 139°46'3 3.3
2014-Apr-13 21:34N 35°29' E 139°49'0 0.2
2014-Apr-13 20:32N 35°29' E 139°48'0 0.0
2014-Apr-13 19:32N 35°29' E 139°48'0 0.0
2014-Apr-13 18:32N 35°29' E 139°48'0 0.0
2014-Apr-13 17:32N 35°29' E 139°49'0 0.0
2014-Apr-13 16:32N 35°29' E 139°49'0 0.0
2014-Apr-13 15:32N 35°29' E 139°49'0 0.0
2014-Apr-13 14:32N 35°29' E 139°49'0 0.0
2014-Apr-13 13:32N 35°29' E 139°49'0 0.0
2014-Apr-13 12:32N 35°29' E 139°48'0 0.0
2014-Apr-13 11:32N 35°29' E 139°48'0 0.0
2014-Apr-13 10:32N 35°29' E 139°48'0 0.0
2014-Apr-13 09:32N 35°29' E 139°48'1 1.1
2014-Apr-13 08:33N 35°30' E 139°49'10 9.4
2014-Apr-13 07:29N 35°30' E 140°02'0 0.0
2014-Apr-13 06:32N 35°30' E 140°02'0 0.0
2014-Apr-13 05:29N 35°30' E 140°02'0 0.0
2014-Apr-13 04:29N 35°30' E 140°02'0 0.0
2014-Apr-13 03:29N 35°30' E 140°02'0 0.0
2014-Apr-13 02:29N 35°30' E 140°02'2 1.7
2014-Apr-13 01:33N 35°30' E 140°00'9 9.4
2014-Apr-13 00:33N 35°27' E 139°49'10 9.7
2014-Apr-12 23:33N 35°18' E 139°45'10 9.8
2014-Apr-12 22:33N 35°08' E 139°46'1110.7
2014-Apr-12 21:33N 35°00' E 139°36'  

Dump ship's entire track history

sailing weather and tide predictions

Sanpo Maru No.5 — JL6343 — position and weather